Time;durP1;ratioP1;P1;durP2;ratioP2;P2;SDS_P1;SDS_P2;PMS_P1;PMS_P2;Temp;Humidity;BMP_temperature;BMP_pressure;BME280_temperature;BME280_humidity;BME280_pressure;Samples;Min_cycle;Max_cycle;Signal;HPM_P1;HPM_P2
2023/06/25 00:02:18;;;;;;;;;;;16.60;99.90;;;;;;5026857;28;19925;-65
2023/06/25 00:04:45;;;;;;;;;;;16.50;99.90;;;;;;5023348;28;20385;-66
2023/06/25 00:07:17;;;;;;;;;;;16.50;99.90;;;;;;5018948;28;19930;-66
2023/06/25 00:09:51;;;;;;;;;;;16.40;99.90;;;;;;5029760;28;20414;-67
2023/06/25 00:12:23;;;;;;;;;;;16.30;99.90;;;;;;5026966;28;19932;-65
2023/06/25 00:14:55;;;;;;;;;;;16.30;99.90;;;;;;5029177;28;20401;-65
2023/06/25 00:17:27;;;;;;;;;;;16.30;99.90;;;;;;5026347;28;19948;-65
2023/06/25 00:19:59;;;;;;;;;;;16.20;99.90;;;;;;5025033;28;19926;-65
2023/06/25 00:22:31;;;;;;;;;;;16.20;99.90;;;;;;5024615;28;20406;-65
2023/06/25 00:25:03;;;;;;;;;;;16.20;99.90;;;;;;5020652;28;19932;-72
2023/06/25 00:27:30;;;;;;;;;;;16.20;99.90;;;;;;5023156;28;19925;-66
2023/06/25 00:30:02;;;;;;;;;;;16.10;99.90;;;;;;5029630;28;19930;-66
2023/06/25 00:32:34;;;;;;;;;;;16.10;99.90;;;;;;5030484;28;20289;-66
2023/06/25 00:35:06;;;;;;;;;;;16.00;99.90;;;;;;5030436;28;19930;-66
2023/06/25 00:37:39;;;;;;;;;;;16.00;99.90;;;;;;5042161;28;19932;-65
2023/06/25 00:40:10;;;;;;;;;;;16.00;99.90;;;;;;5026346;28;19929;-66
2023/06/25 00:42:41;;;;;;;;;;;16.00;99.90;;;;;;5023754;28;19932;-66
2023/06/25 00:45:09;;;;;;;;;;;16.00;99.90;;;;;;5030020;28;19929;-67
2023/06/25 00:47:45;;;;;;;;;;;15.90;99.90;;;;;;5022731;28;20018;-66
2023/06/25 00:50:12;;;;;;;;;;;15.90;99.90;;;;;;5032005;28;20008;-66
2023/06/25 00:52:39;;;;;;;;;;;15.80;99.90;;;;;;5018273;28;19925;-64
2023/06/25 00:55:11;;;;;;;;;;;15.80;99.90;;;;;;5031321;28;19964;-64
2023/06/25 00:57:42;;;;;;;;;;;15.70;99.90;;;;;;5022390;28;19925;-64
2023/06/25 01:00:14;;;;;;;;;;;15.70;99.90;;;;;;5014710;28;19987;-64
2023/06/25 01:02:46;;;;;;;;;;;15.70;99.90;;;;;;5037503;28;19925;-64
2023/06/25 01:05:28;;;;;;;;;;;15.70;99.90;;;;;;5038893;28;19925;-64
2023/06/25 01:08:03;;;;;;;;;;;15.60;99.90;;;;;;5029288;28;19929;-65
2023/06/25 01:10:35;;;;;;;;;;;15.70;99.90;;;;;;5027093;28;20024;-64
2023/06/25 01:13:07;;;;;;;;;;;15.70;99.90;;;;;;5026448;28;19941;-65
2023/06/25 01:15:33;;;;;;;;;;;15.70;99.90;;;;;;5029123;28;19925;-64
2023/06/25 01:18:05;;;;;;;;;;;15.60;99.90;;;;;;5027217;28;19953;-64
2023/06/25 01:20:38;;;;;;;;;;;15.50;99.90;;;;;;5028125;28;19935;-64
2023/06/25 01:23:10;;;;;;;;;;;15.40;99.90;;;;;;5022046;28;20023;-64
2023/06/25 01:25:47;;;;;;;;;;;15.40;99.90;;;;;;5035163;28;20012;-64
2023/06/25 01:28:20;;;;;;;;;;;15.30;99.90;;;;;;5022698;28;19948;-64
2023/06/25 01:30:52;;;;;;;;;;;15.30;99.90;;;;;;5023014;28;19929;-64
2023/06/25 01:33:20;;;;;;;;;;;15.30;99.90;;;;;;5029789;28;19940;-64
2023/06/25 01:35:53;;;;;;;;;;;15.20;99.90;;;;;;5011566;28;19991;-64
2023/06/25 01:38:25;;;;;;;;;;;15.20;99.90;;;;;;5027617;28;19999;-63
2023/06/25 01:40:57;;;;;;;;;;;15.20;99.90;;;;;;5028912;28;19929;-64
2023/06/25 01:43:30;;;;;;;;;;;15.20;99.90;;;;;;5030849;28;19940;-65
2023/06/25 01:46:02;;;;;;;;;;;15.10;99.90;;;;;;5020302;28;19936;-64
2023/06/25 01:48:30;;;;;;;;;;;15.10;99.90;;;;;;5027651;28;19948;-64
2023/06/25 01:51:02;;;;;;;;;;;15.10;99.90;;;;;;5029252;28;20040;-64
2023/06/25 01:53:35;;;;;;;;;;;15.00;99.90;;;;;;5020044;28;20387;-64
2023/06/25 01:56:06;;;;;;;;;;;15.10;99.90;;;;;;5022972;28;19929;-64
2023/06/25 01:58:38;;;;;;;;;;;15.00;99.90;;;;;;5027335;28;19926;-64
2023/06/25 02:01:10;;;;;;;;;;;15.00;99.90;;;;;;5024225;28;19936;-64
2023/06/25 02:03:42;;;;;;;;;;;14.90;99.90;;;;;;5022332;28;19976;-64
2023/06/25 02:06:14;;;;;;;;;;;14.90;99.90;;;;;;5021800;28;19929;-64
2023/06/25 02:08:46;;;;;;;;;;;14.90;99.90;;;;;;5019883;28;19925;-64
2023/06/25 02:11:18;;;;;;;;;;;14.90;99.90;;;;;;5018220;28;19929;-64
2023/06/25 02:13:50;;;;;;;;;;;14.80;99.90;;;;;;5020219;28;19948;-64
2023/06/25 02:16:22;;;;;;;;;;;14.80;99.90;;;;;;5019814;28;19972;-64
2023/06/25 02:18:53;;;;;;;;;;;14.80;99.90;;;;;;5020379;28;20394;-64
2023/06/25 02:21:25;;;;;;;;;;;14.70;99.90;;;;;;5017599;28;20020;-64
2023/06/25 02:23:52;;;;;;;;;;;14.70;99.90;;;;;;5020120;28;19925;-64
2023/06/25 02:26:24;;;;;;;;;;;14.70;99.90;;;;;;5029043;28;19929;-64
2023/06/25 02:28:55;;;;;;;;;;;14.70;99.90;;;;;;5028588;28;19933;-64
2023/06/25 02:31:27;;;;;;;;;;;14.70;99.90;;;;;;5027716;28;19929;-64
2023/06/25 02:33:59;;;;;;;;;;;14.60;99.90;;;;;;5010782;28;20398;-64
2023/06/25 02:36:31;;;;;;;;;;;14.60;99.90;;;;;;5015767;28;19933;-64
2023/06/25 02:39:03;;;;;;;;;;;14.50;99.90;;;;;;5025566;28;19932;-64
2023/06/25 02:41:30;;;;;;;;;;;14.50;99.90;;;;;;5015969;28;19972;-64
2023/06/25 02:44:02;;;;;;;;;;;14.50;99.90;;;;;;5017257;28;20016;-65
2023/06/25 02:46:35;;;;;;;;;;;14.40;99.90;;;;;;5017465;28;19925;-64
2023/06/25 02:49:07;;;;;;;;;;;14.40;99.90;;;;;;5011301;28;20024;-64
2023/06/25 02:51:39;;;;;;;;;;;14.40;99.90;;;;;;5035979;28;19925;-64
2023/06/25 02:54:10;;;;;;;;;;;14.40;99.90;;;;;;5031448;28;19929;-64
2023/06/25 02:56:42;;;;;;;;;;;14.40;99.90;;;;;;5026670;28;19933;-64
2023/06/25 02:59:14;;;;;;;;;;;14.40;99.90;;;;;;5016338;28;19968;-64
2023/06/25 03:01:46;;;;;;;;;;;14.40;99.90;;;;;;5026414;28;19933;-63
2023/06/25 03:04:18;;;;;;;;;;;14.40;99.90;;;;;;5010345;28;20772;-64
2023/06/25 03:06:50;;;;;;;;;;;14.30;99.90;;;;;;4999674;28;19926;-64
2023/06/25 03:09:22;;;;;;;;;;;14.30;99.90;;;;;;5025661;28;20393;-64
2023/06/25 03:11:55;;;;;;;;;;;14.30;99.90;;;;;;5023098;28;19925;-64
2023/06/25 03:14:27;;;;;;;;;;;14.20;99.90;;;;;;5027442;28;19952;-64
2023/06/25 03:16:59;;;;;;;;;;;14.20;99.90;;;;;;5019724;28;20023;-64
2023/06/25 03:19:31;;;;;;;;;;;14.20;99.90;;;;;;5025957;28;20309;-64
2023/06/25 03:22:03;;;;;;;;;;;14.10;99.90;;;;;;5015335;28;20287;-64
2023/06/25 03:24:39;;;;;;;;;;;14.10;99.90;;;;;;5018869;28;19930;-64
2023/06/25 03:27:11;;;;;;;;;;;14.10;99.90;;;;;;5010393;28;19964;-64
2023/06/25 03:29:44;;;;;;;;;;;14.10;99.90;;;;;;5010664;28;20325;-64
2023/06/25 03:32:16;;;;;;;;;;;14.10;99.90;;;;;;5029123;28;20324;-64
2023/06/25 03:34:42;;;;;;;;;;;14.00;99.90;;;;;;5023383;28;19929;-63
2023/06/25 03:37:15;;;;;;;;;;;14.00;99.90;;;;;;5026588;28;20409;-64
2023/06/25 03:39:47;;;;;;;;;;;14.00;99.90;;;;;;5024924;28;19929;-64
2023/06/25 03:42:19;;;;;;;;;;;14.00;99.90;;;;;;5021980;28;19925;-64
2023/06/25 03:44:54;;;;;;;;;;;14.00;99.90;;;;;;5030266;28;20010;-64
2023/06/25 03:47:25;;;;;;;;;;;14.00;99.90;;;;;;5019159;28;19929;-64
2023/06/25 03:49:57;;;;;;;;;;;14.00;99.90;;;;;;5018026;28;19964;-64
2023/06/25 03:52:33;;;;;;;;;;;14.00;99.90;;;;;;5029941;28;19979;-64
2023/06/25 03:55:01;;;;;;;;;;;14.00;99.90;;;;;;5032252;28;20282;-64
2023/06/25 03:57:33;;;;;;;;;;;14.00;99.90;;;;;;5027978;28;19947;-64
2023/06/25 04:00:05;;;;;;;;;;;13.90;99.90;;;;;;5027282;28;19948;-64
2023/06/25 04:02:38;;;;;;;;;;;13.90;99.90;;;;;;5026630;28;19925;-64
2023/06/25 04:05:06;;;;;;;;;;;13.90;99.90;;;;;;5021333;28;19932;-63
2023/06/25 04:07:37;;;;;;;;;;;14.00;99.90;;;;;;5019344;28;20033;-64
2023/06/25 04:10:09;;;;;;;;;;;14.00;99.90;;;;;;5031270;28;19926;-64
2023/06/25 04:12:42;;;;;;;;;;;14.00;99.90;;;;;;5027875;28;19932;-64
2023/06/25 04:15:15;;;;;;;;;;;14.00;99.90;;;;;;5028238;28;19933;-64
2023/06/25 04:17:42;;;;;;;;;;;14.00;99.90;;;;;;5030496;28;19929;-64
2023/06/25 04:20:14;;;;;;;;;;;14.10;99.90;;;;;;5032338;28;20746;-64
2023/06/25 04:22:47;;;;;;;;;;;14.10;99.90;;;;;;5029547;28;20548;-64
2023/06/25 04:25:19;;;;;;;;;;;14.20;99.90;;;;;;5026463;28;20384;-63
2023/06/25 04:27:53;;;;;;;;;;;14.20;99.90;;;;;;5029622;28;19991;-64
2023/06/25 04:30:25;;;;;;;;;;;14.20;99.90;;;;;;5039260;28;20450;-64
2023/06/25 04:32:58;;;;;;;;;;;14.30;99.90;;;;;;5031919;28;19929;-64
2023/06/25 04:35:30;;;;;;;;;;;14.30;99.90;;;;;;5029127;28;19929;-64
2023/06/25 04:38:02;;;;;;;;;;;14.30;99.90;;;;;;5008731;28;19931;-64
2023/06/25 04:40:33;;;;;;;;;;;14.40;99.90;;;;;;5031033;28;19975;-64
2023/06/25 04:43:07;;;;;;;;;;;14.40;99.90;;;;;;5010101;28;19979;-64
2023/06/25 04:45:33;;;;;;;;;;;14.50;99.90;;;;;;5030560;28;19936;-64
2023/06/25 04:48:05;;;;;;;;;;;14.50;99.90;;;;;;5030930;28;19929;-64
2023/06/25 04:50:37;;;;;;;;;;;14.50;99.90;;;;;;5020335;28;19940;-64
2023/06/25 04:53:09;;;;;;;;;;;14.50;99.90;;;;;;5025785;28;19987;-63
2023/06/25 04:55:41;;;;;;;;;;;14.60;99.90;;;;;;5026849;28;20296;-64
2023/06/25 04:58:13;;;;;;;;;;;14.60;99.90;;;;;;5028169;28;19925;-64
2023/06/25 05:00:44;;;;;;;;;;;14.60;99.90;;;;;;5026022;28;19925;-63
2023/06/25 05:03:16;;;;;;;;;;;14.60;99.90;;;;;;5023357;28;20020;-64
2023/06/25 05:05:48;;;;;;;;;;;14.70;99.90;;;;;;5017778;28;19932;-64
2023/06/25 05:08:20;;;;;;;;;;;14.70;99.90;;;;;;5029876;28;20028;-64
2023/06/25 05:10:47;;;;;;;;;;;14.70;99.90;;;;;;5023789;28;19925;-64
2023/06/25 05:13:13;;;;;;;;;;;14.70;99.90;;;;;;5023592;28;20020;-64
2023/06/25 05:15:41;;;;;;;;;;;14.80;99.90;;;;;;5023155;28;19930;-64
2023/06/25 05:18:13;;;;;;;;;;;14.80;99.90;;;;;;5023585;28;20401;-64
2023/06/25 05:20:44;;;;;;;;;;;14.80;99.90;;;;;;5024694;28;19936;-64
2023/06/25 05:23:11;;;;;;;;;;;14.80;99.90;;;;;;5025524;28;19976;-64
2023/06/25 05:25:38;;;;;;;;;;;14.90;99.90;;;;;;5029370;28;20453;-64
2023/06/25 05:28:05;;;;;;;;;;;14.90;99.90;;;;;;5028496;28;20028;-64
2023/06/25 05:30:37;;;;;;;;;;;14.90;99.90;;;;;;5023039;28;20376;-64
2023/06/25 05:33:04;;;;;;;;;;;14.90;99.90;;;;;;5020493;28;19929;-64
2023/06/25 05:35:36;;;;;;;;;;;14.90;99.90;;;;;;5020011;28;19929;-64
2023/06/25 05:38:07;;;;;;;;;;;15.00;99.90;;;;;;5022799;28;19988;-64
2023/06/25 05:40:39;;;;;;;;;;;15.00;99.90;;;;;;5021922;28;19929;-64
2023/06/25 05:43:11;;;;;;;;;;;15.00;99.90;;;;;;5024249;28;20317;-64
2023/06/25 05:45:43;;;;;;;;;;;15.10;99.90;;;;;;5023493;28;19925;-64
2023/06/25 05:48:09;;;;;;;;;;;15.20;99.90;;;;;;5023285;28;19929;-64
2023/06/25 05:50:41;;;;;;;;;;;15.20;99.90;;;;;;5028047;28;19926;-64
2023/06/25 05:53:13;;;;;;;;;;;15.30;99.90;;;;;;5019406;28;19933;-64
2023/06/25 05:55:45;;;;;;;;;;;15.40;99.90;;;;;;5017002;28;19933;-64
2023/06/25 05:58:17;;;;;;;;;;;15.40;99.90;;;;;;5019020;28;19932;-65
2023/06/25 06:00:49;;;;;;;;;;;15.50;99.90;;;;;;5025258;28;19953;-65
2023/06/25 06:03:16;;;;;;;;;;;15.60;99.90;;;;;;5019054;28;20310;-64
2023/06/25 06:05:47;;;;;;;;;;;15.60;99.90;;;;;;5022755;28;19936;-65
2023/06/25 06:08:19;;;;;;;;;;;15.70;99.90;;;;;;5028256;28;19971;-64
2023/06/25 06:10:51;;;;;;;;;;;15.80;99.90;;;;;;5016932;28;20337;-64
2023/06/25 06:13:22;;;;;;;;;;;15.90;99.90;;;;;;5022594;28;20565;-64
2023/06/25 06:15:54;;;;;;;;;;;16.00;99.90;;;;;;5008283;28;20423;-64
2023/06/25 06:18:26;;;;;;;;;;;16.10;99.90;;;;;;5025110;28;19933;-64
2023/06/25 06:20:58;;;;;;;;;;;16.30;99.90;;;;;;5017224;28;19925;-64
2023/06/25 06:23:30;;;;;;;;;;;16.40;99.90;;;;;;5015727;28;19925;-64
2023/06/25 06:26:01;;;;;;;;;;;16.50;99.90;;;;;;5019854;28;19925;-64
2023/06/25 06:28:28;;;;;;;;;;;16.60;99.90;;;;;;5028453;28;19929;-64
2023/06/25 06:31:00;;;;;;;;;;;16.70;99.90;;;;;;5025255;28;19980;-64
2023/06/25 06:33:32;;;;;;;;;;;16.90;99.90;;;;;;5025899;28;19929;-67
2023/06/25 06:35:58;;;;;;;;;;;17.00;99.90;;;;;;5021025;28;20015;-64
2023/06/25 06:38:30;;;;;;;;;;;17.10;99.90;;;;;;5021696;28;19925;-65
2023/06/25 06:41:02;;;;;;;;;;;17.20;99.90;;;;;;5018906;28;19927;-65
2023/06/25 06:43:33;;;;;;;;;;;17.30;99.90;;;;;;5023246;28;20423;-64
2023/06/25 06:46:05;;;;;;;;;;;17.50;99.90;;;;;;5015043;28;19926;-64
2023/06/25 06:48:32;;;;;;;;;;;17.70;99.90;;;;;;5027132;28;19933;-64
2023/06/25 06:51:04;;;;;;;;;;;17.80;99.90;;;;;;5023027;28;19949;-64
2023/06/25 06:53:30;;;;;;;;;;;18.00;99.90;;;;;;5021399;28;19935;-64
2023/06/25 06:55:57;;;;;;;;;;;18.10;99.90;;;;;;5025510;28;20339;-64
2023/06/25 06:58:29;;;;;;;;;;;18.30;99.90;;;;;;5027181;28;20032;-64
2023/06/25 07:01:01;;;;;;;;;;;18.50;99.90;;;;;;5020687;28;19925;-64
2023/06/25 07:03:33;;;;;;;;;;;18.60;99.90;;;;;;5011192;28;20032;-65
2023/06/25 07:05:59;;;;;;;;;;;18.70;99.90;;;;;;5021240;28;19929;-64
2023/06/25 07:08:31;;;;;;;;;;;18.90;99.90;;;;;;5019048;28;19926;-64
2023/06/25 07:11:03;;;;;;;;;;;19.10;99.90;;;;;;5017388;28;19948;-64
2023/06/25 07:13:35;;;;;;;;;;;19.20;99.90;;;;;;5021660;28;20366;-64
2023/06/25 07:16:06;;;;;;;;;;;19.30;99.90;;;;;;5023445;28;20016;-67
2023/06/25 07:18:33;;;;;;;;;;;19.50;99.90;;;;;;5022403;28;19964;-66
2023/06/25 07:21:06;;;;;;;;;;;19.60;99.90;;;;;;5019981;28;19925;-66
2023/06/25 07:23:37;;;;;;;;;;;19.70;99.90;;;;;;5016671;28;19936;-66
2023/06/25 07:26:09;;;;;;;;;;;19.90;99.90;;;;;;5023566;28;19925;-67
2023/06/25 07:28:36;;;;;;;;;;;20.00;99.90;;;;;;5028729;28;19974;-66
2023/06/25 07:31:07;;;;;;;;;;;20.20;99.90;;;;;;5020093;28;19932;-67
2023/06/25 07:33:39;;;;;;;;;;;20.30;99.90;;;;;;5021745;28;19976;-67
2023/06/25 07:36:06;;;;;;;;;;;20.40;99.90;;;;;;5028145;28;19925;-67
2023/06/25 07:38:37;;;;;;;;;;;20.60;99.90;;;;;;5025590;28;19935;-67
2023/06/25 07:41:09;;;;;;;;;;;20.70;99.90;;;;;;5027802;28;19929;-67
2023/06/25 07:43:41;;;;;;;;;;;20.80;99.90;;;;;;5024902;28;20721;-67
2023/06/25 07:46:13;;;;;;;;;;;20.90;99.90;;;;;;5027056;28;19929;-67
2023/06/25 07:48:40;;;;;;;;;;;21.00;99.90;;;;;;5034567;28;20308;-66
2023/06/25 07:51:11;;;;;;;;;;;21.10;99.90;;;;;;5027238;28;20016;-67
2023/06/25 07:53:43;;;;;;;;;;;21.20;99.90;;;;;;5021880;28;19933;-67
2023/06/25 07:56:15;;;;;;;;;;;21.40;99.90;;;;;;5027964;28;19925;-66
2023/06/25 07:58:47;;;;;;;;;;;21.40;99.90;;;;;;5023021;28;19925;-64
2023/06/25 08:01:18;;;;;;;;;;;21.50;99.90;;;;;;5026358;28;20018;-64
2023/06/25 08:03:50;;;;;;;;;;;21.70;99.90;;;;;;5023479;28;19952;-65
2023/06/25 08:06:23;;;;;;;;;;;21.70;99.90;;;;;;5027046;28;19936;-64
2023/06/25 08:08:55;;;;;;;;;;;21.90;99.90;;;;;;5022919;28;20363;-65
2023/06/25 08:11:22;;;;;;;;;;;22.00;99.90;;;;;;5025662;28;19936;-65
2023/06/25 08:13:54;;;;;;;;;;;22.10;99.90;;;;;;5024753;28;19979;-65
2023/06/25 08:16:27;;;;;;;;;;;22.20;99.90;;;;;;5024559;28;19925;-64
2023/06/25 08:19:00;;;;;;;;;;;22.40;99.90;;;;;;5027004;28;19936;-65
2023/06/25 08:21:31;;;;;;;;;;;22.50;99.90;;;;;;5040498;28;19956;-65
2023/06/25 08:24:03;;;;;;;;;;;22.60;99.90;;;;;;5022842;28;19932;-65
2023/06/25 08:26:35;;;;;;;;;;;22.80;99.90;;;;;;5031665;28;19936;-65
2023/06/25 08:29:06;;;;;;;;;;;22.90;99.90;;;;;;5026728;28;19936;-65
2023/06/25 08:31:33;;;;;;;;;;;23.00;99.90;;;;;;5027838;28;20063;-65
2023/06/25 08:34:05;;;;;;;;;;;23.10;99.90;;;;;;5030087;28;19929;-66
2023/06/25 08:36:37;;;;;;;;;;;23.20;99.90;;;;;;5016192;28;19929;-65
2023/06/25 08:39:08;;;;;;;;;;;23.30;99.90;;;;;;5029677;28;20405;-64
2023/06/25 08:41:35;;;;;;;;;;;23.40;99.90;;;;;;5027571;28;19983;-64
2023/06/25 08:44:07;;;;;;;;;;;23.40;99.90;;;;;;5024900;28;20016;-65
2023/06/25 08:46:44;;;;;;;;;;;23.60;99.90;;;;;;5028933;28;19929;-65
2023/06/25 08:49:16;;;;;;;;;;;23.70;99.90;;;;;;5023158;28;19936;-65
2023/06/25 08:51:48;;;;;;;;;;;23.80;99.90;;;;;;5023223;28;20021;-65
2023/06/25 08:54:20;;;;;;;;;;;23.90;99.90;;;;;;5026749;28;19933;-65
2023/06/25 08:56:52;;;;;;;;;;;24.00;99.10;;;;;;5025295;28;19929;-65
2023/06/25 08:59:23;;;;;;;;;;;24.10;97.10;;;;;;5028567;28;20366;-65
2023/06/25 09:01:55;;;;;;;;;;;24.20;97.10;;;;;;5030762;28;19929;-65
2023/06/25 09:04:27;;;;;;;;;;;24.30;97.40;;;;;;5027669;28;19936;-64
2023/06/25 09:07:06;;;;;;;;;;;24.40;97.40;;;;;;5025712;28;19932;-65
2023/06/25 09:09:38;;;;;;;;;;;24.60;98.00;;;;;;5023357;28;20014;-64
2023/06/25 09:12:10;;;;;;;;;;;24.70;96.60;;;;;;5027522;28;19953;-65
2023/06/25 09:14:37;;;;;;;;;;;24.80;94.20;;;;;;5028797;28;19929;-65
2023/06/25 09:17:04;;;;;;;;;;;24.90;93.10;;;;;;5023740;28;20003;-65
2023/06/25 09:19:41;;;;;;;;;;;25.00;93.60;;;;;;5028791;28;19925;-66
2023/06/25 09:22:13;;;;;;;;;;;25.00;93.50;;;;;;5029171;28;20022;-66
2023/06/25 09:24:49;;;;;;;;;;;25.10;92.60;;;;;;5029360;28;19976;-64
2023/06/25 09:27:20;;;;;;;;;;;25.10;93.70;;;;;;5029218;28;20031;-65
2023/06/25 09:29:48;;;;;;;;;;;25.10;92.80;;;;;;5027473;28;20309;-65
2023/06/25 09:32:20;;;;;;;;;;;25.20;92.70;;;;;;5027601;28;19929;-65
2023/06/25 09:34:52;;;;;;;;;;;25.20;91.60;;;;;;5024474;28;19951;-64
2023/06/25 09:37:25;;;;;;;;;;;25.30;91.30;;;;;;5017494;28;19926;-64
2023/06/25 09:39:57;;;;;;;;;;;25.30;91.70;;;;;;5024273;28;19929;-65
2023/06/25 09:42:24;;;;;;;;;;;25.50;92.90;;;;;;5028146;28;19925;-65
2023/06/25 09:44:56;;;;;;;;;;;25.60;91.10;;;;;;5026202;28;19931;-65
2023/06/25 09:47:28;;;;;;;;;;;25.60;90.60;;;;;;5025976;28;19925;-65
2023/06/25 09:50:00;;;;;;;;;;;25.70;91.20;;;;;;5028708;28;19932;-64
2023/06/25 09:52:32;;;;;;;;;;;25.90;91.70;;;;;;5028638;28;19929;-65
2023/06/25 09:55:04;;;;;;;;;;;26.00;89.90;;;;;;5028230;28;19925;-65
2023/06/25 09:57:36;;;;;;;;;;;26.10;90.50;;;;;;5027090;28;19951;-67
2023/06/25 10:00:09;;;;;;;;;;;26.10;90.00;;;;;;5025717;28;19936;-67
2023/06/25 10:02:41;;;;;;;;;;;26.20;88.90;;;;;;5026491;28;20026;-65
2023/06/25 10:05:13;;;;;;;;;;;26.30;87.10;;;;;;5026549;28;20455;-65
2023/06/25 10:07:47;;;;;;;;;;;26.30;84.30;;;;;;5022459;28;19948;-65
2023/06/25 10:10:23;;;;;;;;;;;26.40;82.10;;;;;;5026660;28;19925;-65
2023/06/25 10:12:55;;;;;;;;;;;26.40;85.40;;;;;;5021418;28;20278;-65
2023/06/25 10:15:27;;;;;;;;;;;26.60;85.70;;;;;;5025021;28;19947;-65
2023/06/25 10:18:00;;;;;;;;;;;26.70;85.70;;;;;;5026344;28;20413;-65
2023/06/25 10:20:36;;;;;;;;;;;26.80;85.30;;;;;;5024580;28;19925;-65
2023/06/25 10:23:09;;;;;;;;;;;26.70;79.80;;;;;;5023744;28;19935;-65
2023/06/25 10:25:51;;;;;;;;;;;26.70;79.80;;;;;;5026539;28;19929;-65
2023/06/25 10:28:30;;;;;;;;;;;26.80;80.20;;;;;;5024167;28;19925;-65
2023/06/25 10:31:15;;;;;;;;;;;26.90;80.70;;;;;;5029478;28;20392;-65
2023/06/25 10:33:47;;;;;;;;;;;27.10;78.70;;;;;;5026636;28;19931;-65
2023/06/25 10:36:23;;;;;;;;;;;27.30;80.00;;;;;;5028092;28;19929;-65
2023/06/25 10:38:58;;;;;;;;;;;27.40;80.60;;;;;;5022451;28;19925;-65
2023/06/25 10:41:31;;;;;;;;;;;27.50;77.60;;;;;;5028028;28;19929;-65
2023/06/25 10:44:03;;;;;;;;;;;27.40;78.20;;;;;;5028538;28;20351;-65
2023/06/25 10:46:34;;;;;;;;;;;27.50;79.00;;;;;;5027829;28;19925;-65
2023/06/25 10:49:06;;;;;;;;;;;27.50;76.40;;;;;;5027249;28;19925;-65
2023/06/25 10:51:38;;;;;;;;;;;27.40;77.60;;;;;;5027689;28;20520;-65
2023/06/25 10:54:11;;;;;;;;;;;27.50;77.80;;;;;;5026269;28;19951;-65
2023/06/25 10:56:43;;;;;;;;;;;27.60;75.50;;;;;;5025476;28;19968;-65
2023/06/25 10:59:22;;;;;;;;;;;27.80;72.50;;;;;;5023496;28;19926;-65
2023/06/25 11:01:54;;;;;;;;;;;27.90;70.50;;;;;;5026003;28;19937;-66
2023/06/25 11:04:26;;;;;;;;;;;28.00;69.70;;;;;;5026706;28;20080;-65
2023/06/25 11:06:58;;;;;;;;;;;28.10;70.60;;;;;;5026644;28;20356;-65
2023/06/25 11:09:24;;;;;;;;;;;28.00;68.80;;;;;;5029969;28;19928;-65
2023/06/25 11:11:56;;;;;;;;;;;28.10;71.00;;;;;;5025665;28;19996;-65
2023/06/25 11:14:28;;;;;;;;;;;28.10;69.90;;;;;;5024363;28;19925;-65
2023/06/25 11:17:00;;;;;;;;;;;28.20;67.00;;;;;;5021036;28;20024;-65
2023/06/25 11:19:32;;;;;;;;;;;28.30;68.60;;;;;;5021115;28;19933;-65
2023/06/25 11:22:04;;;;;;;;;;;28.50;68.70;;;;;;5026671;28;19932;-65
2023/06/25 11:24:36;;;;;;;;;;;28.60;64.90;;;;;;5022323;28;20044;-65
2023/06/25 11:27:08;;;;;;;;;;;28.60;64.40;;;;;;5021731;28;20659;-65
2023/06/25 11:29:40;;;;;;;;;;;28.70;64.10;;;;;;5022605;28;19936;-65
2023/06/25 11:32:20;;;;;;;;;;;28.60;64.80;;;;;;5037798;28;19976;-65
2023/06/25 11:34:52;;;;;;;;;;;28.60;63.70;;;;;;5020437;28;19932;-64
2023/06/25 11:37:27;;;;;;;;;;;28.60;63.50;;;;;;5024760;28;19925;-65
2023/06/25 11:39:58;;;;;;;;;;;28.70;65.20;;;;;;5021234;28;19929;-64
2023/06/25 11:42:30;;;;;;;;;;;28.70;59.90;;;;;;5021686;28;20012;-65
2023/06/25 11:45:06;;;;;;;;;;;28.80;59.00;;;;;;5018417;28;19925;-65
2023/06/25 11:47:42;;;;;;;;;;;28.80;58.70;;;;;;5022081;28;19925;-65
2023/06/25 11:50:09;;;;;;;;;;;28.90;58.80;;;;;;5022122;28;19929;-65
2023/06/25 11:52:41;;;;;;;;;;;29.00;59.20;;;;;;5025226;28;20562;-65
2023/06/25 11:55:13;;;;;;;;;;;29.00;59.00;;;;;;5026044;28;19935;-65
2023/06/25 11:57:45;;;;;;;;;;;29.10;59.10;;;;;;5027096;28;20393;-67
2023/06/25 12:00:17;;;;;;;;;;;29.20;58.10;;;;;;5025379;28;19950;-65
2023/06/25 12:02:49;;;;;;;;;;;29.10;57.80;;;;;;5027909;28;19932;-67
2023/06/25 12:05:15;;;;;;;;;;;29.10;59.90;;;;;;5027905;28;19928;-67
2023/06/25 12:07:47;;;;;;;;;;;29.10;61.50;;;;;;5020139;28;19925;-65
2023/06/25 12:10:20;;;;;;;;;;;29.20;59.30;;;;;;5020234;28;20406;-67
2023/06/25 12:12:47;;;;;;;;;;;29.30;57.70;;;;;;5032488;28;20312;-67
2023/06/25 12:15:19;;;;;;;;;;;29.40;57.20;;;;;;5024629;28;20499;-68
2023/06/25 12:17:51;;;;;;;;;;;29.50;58.20;;;;;;5029896;28;19929;-67
2023/06/25 12:20:23;;;;;;;;;;;29.60;57.80;;;;;;5030386;28;20282;-67
2023/06/25 12:22:50;;;;;;;;;;;29.60;57.80;;;;;;5029312;28;20214;-67
2023/06/25 12:25:24;;;;;;;;;;;29.70;57.80;;;;;;5025498;28;19929;-67
2023/06/25 12:27:56;;;;;;;;;;;29.80;57.50;;;;;;5023640;28;20474;-67
2023/06/25 12:30:27;;;;;;;;;;;29.90;57.10;;;;;;5021280;28;19968;-68
2023/06/25 12:32:54;;;;;;;;;;;30.00;56.80;;;;;;5030978;28;19929;-67
2023/06/25 12:35:26;;;;;;;;;;;30.10;56.90;;;;;;5028945;28;19926;-68
2023/06/25 12:37:57;;;;;;;;;;;30.00;54.40;;;;;;5031196;28;19929;-68
2023/06/25 12:40:29;;;;;;;;;;;30.10;56.20;;;;;;5024701;28;19926;-68
2023/06/25 12:43:01;;;;;;;;;;;30.10;57.20;;;;;;5023821;28;19936;-68
2023/06/25 12:45:33;;;;;;;;;;;30.30;56.00;;;;;;5024367;28;19925;-68
2023/06/25 12:48:05;;;;;;;;;;;30.30;57.60;;;;;;5028314;28;19929;-67
2023/06/25 12:50:36;;;;;;;;;;;30.20;53.80;;;;;;5035333;28;20031;-68
2023/06/25 12:53:08;;;;;;;;;;;30.10;55.60;;;;;;5035125;28;19994;-66
2023/06/25 12:55:40;;;;;;;;;;;30.10;55.30;;;;;;5038121;28;20015;-67
2023/06/25 12:58:06;;;;;;;;;;;30.10;55.20;;;;;;5030570;28;19972;-67
2023/06/25 13:00:38;;;;;;;;;;;30.10;55.70;;;;;;5018142;28;19925;-67
2023/06/25 13:03:05;;;;;;;;;;;30.30;55.80;;;;;;5025928;28;19968;-68
2023/06/25 13:05:37;;;;;;;;;;;30.50;55.90;;;;;;5041746;28;19967;-66
2023/06/25 13:08:08;;;;;;;;;;;30.60;54.00;;;;;;5036326;28;19925;-68
2023/06/25 13:10:40;;;;;;;;;;;30.60;55.90;;;;;;5037921;28;19968;-67
2023/06/25 13:13:07;;;;;;;;;;;30.90;55.30;;;;;;5034078;28;19925;-68
2023/06/25 13:15:39;;;;;;;;;;;31.00;55.10;;;;;;5030453;28;19929;-67
2023/06/25 13:18:10;;;;;;;;;;;30.80;52.40;;;;;;5027459;28;19933;-67
2023/06/25 13:20:42;;;;;;;;;;;30.60;54.30;;;;;;5024209;28;19929;-67
2023/06/25 13:23:14;;;;;;;;;;;30.50;53.40;;;;;;5030303;28;19925;-67
2023/06/25 13:25:45;;;;;;;;;;;30.60;54.50;;;;;;5026224;28;19979;-67
2023/06/25 13:28:18;;;;;;;;;;;30.50;52.20;;;;;;5031180;28;19932;-66
2023/06/25 13:30:49;;;;;;;;;;;30.60;52.50;;;;;;5031028;28;20484;-66
2023/06/25 13:33:16;;;;;;;;;;;30.70;52.60;;;;;;5029097;28;20024;-67
2023/06/25 13:35:48;;;;;;;;;;;30.90;53.90;;;;;;5028573;28;19933;-67
2023/06/25 13:38:15;;;;;;;;;;;31.10;52.50;;;;;;5029857;28;19932;-67
2023/06/25 13:40:47;;;;;;;;;;;31.30;53.10;;;;;;5027115;28;19929;-67
2023/06/25 13:43:19;;;;;;;;;;;31.30;51.80;;;;;;5024138;28;19925;-67
2023/06/25 13:45:51;;;;;;;;;;;31.30;52.00;;;;;;5018729;28;19935;-67
2023/06/25 13:48:23;;;;;;;;;;;31.30;51.70;;;;;;5012606;28;19930;-67
2023/06/25 13:50:55;;;;;;;;;;;31.50;51.30;;;;;;5023197;28;19931;-67
2023/06/25 13:53:27;;;;;;;;;;;31.60;51.40;;;;;;5039399;28;20406;-67
2023/06/25 13:55:59;;;;;;;;;;;31.70;51.20;;;;;;5025194;28;19925;-67
2023/06/25 13:58:31;;;;;;;;;;;31.70;49.60;;;;;;5026006;28;19929;-67
2023/06/25 14:00:57;;;;;;;;;;;31.70;49.10;;;;;;5027427;28;19949;-67
2023/06/25 14:03:30;;;;;;;;;;;31.80;50.40;;;;;;5029952;28;19932;-67
2023/06/25 14:05:56;;;;;;;;;;;31.80;49.90;;;;;;5028705;28;19964;-67
2023/06/25 14:08:30;;;;;;;;;;;31.80;49.40;;;;;;5011738;28;20128;-67
2023/06/25 14:11:02;;;;;;;;;;;32.00;49.60;;;;;;5028304;28;19925;-67
2023/06/25 14:13:34;;;;;;;;;;;32.30;48.60;;;;;;5019772;28;20012;-68
2023/06/25 14:16:06;;;;;;;;;;;32.40;49.40;;;;;;5022062;28;19951;-67
2023/06/25 14:18:37;;;;;;;;;;;32.70;48.70;;;;;;5022030;28;20385;-67
2023/06/25 14:21:09;;;;;;;;;;;32.50;47.60;;;;;;5022711;28;19925;-67
2023/06/25 14:23:41;;;;;;;;;;;32.80;49.00;;;;;;5026020;28;19925;-67
2023/06/25 14:26:12;;;;;;;;;;;32.80;49.30;;;;;;5022908;28;19940;-67
2023/06/25 14:28:44;;;;;;;;;;;33.10;50.00;;;;;;5026612;28;19932;-67
2023/06/25 14:31:16;;;;;;;;;;;33.40;48.60;;;;;;5025520;28;19936;-67
2023/06/25 14:33:47;;;;;;;;;;;33.60;47.90;;;;;;5025723;28;19925;-67
2023/06/25 14:36:19;;;;;;;;;;;33.50;46.40;;;;;;5026445;28;19964;-67
2023/06/25 14:38:51;;;;;;;;;;;33.50;47.50;;;;;;5026446;28;19940;-67
2023/06/25 14:41:23;;;;;;;;;;;33.50;48.10;;;;;;5019425;28;19929;-67